This is the latest recevied weather packets stored in our database for station/object AG1T-20. If no packets are shown the sender has not sent any weather packets the latest 10 day(s).
| Time | Temp. | Humidity | Pressure | Rain* | Wind** | Luminosity | Snow |
|---|---|---|---|---|---|---|---|
| 1787977204 | 18.89° C | 76% | 1021.1 hPa | 0 mm | - | 0 W/m² | - |
| 1787976604 | 18.89° C | 75% | 1021.1 hPa | 0 mm | - | 0 W/m² | - |
| 1787976004 | 18.89° C | 77% | 1021.1 hPa | 0 mm | - | 0 W/m² | - |
| 1787975404 | 18.89° C | 76% | 1020.8 hPa | 0 mm | - | 0 W/m² | - |
| 1787974804 | 18.89° C | 75% | 1020.8 hPa | 0 mm | - | 0 W/m² | - |
| 1787974205 | 18.89° C | 74% | 1020.8 hPa | 0 mm | - | 0 W/m² | - |
| 1787973604 | 20° C | 71% | 1020.8 hPa | 0 mm | - | 0 W/m² | - |
| 1787973004 | 20.56° C | 66% | 1020.8 hPa | 0 mm | - | 0 W/m² | - |
| 1787972404 | 20.56° C | 65% | 1020.8 hPa | 0 mm | - | 0 W/m² | - |
| 1787971804 | 20° C | 66% | 1020.7 hPa | 0 mm | - | 0 W/m² | - |
| 1787971204 | 20° C | 68% | 1020.7 hPa | 0 mm | - | 0 W/m² | - |
| 1787970604 | 20° C | 68% | 1020.7 hPa | 0.25 mm | - | 0 W/m² | - |
| 1787970004 | 20.56° C | 68% | 1020.7 hPa | 0.76 mm | - | 0 W/m² | - |
| 1787969404 | 20.56° C | 63% | 1020.7 hPa | 1.02 mm | - | 0 W/m² | - |
| 1787968804 | 21.11° C | 64% | 1020.7 hPa | 1.02 mm | - | 4 W/m² | - |
| 1787968205 | 21.67° C | 61% | 1018.5 hPa | 1.02 mm | - | 9 W/m² | - |
| 1787967604 | 20° C | 70% | 1018.5 hPa | 1.02 mm | - | 13 W/m² | - |
| 1787967004 | 19.44° C | 73% | 1018.5 hPa | 0.76 mm | - | 26 W/m² | - |
| 1787966404 | 19.44° C | 71% | 1018.5 hPa | 0.25 mm | - | 31 W/m² | - |
| 1787965804 | 20.56° C | 65% | 1018.5 hPa | 0 mm | - | 4 W/m² | - |
| 1787965204 | 27.78° C | 35% | 1018.5 hPa | 0 mm | - | 4 W/m² | - |
| 1787964604 | 27.78° C | 34% | 1017.7 hPa | 0 mm | - | 22 W/m² | - |
| 1787964005 | 28.33° C | 34% | 1017.7 hPa | 0 mm | - | 49 W/m² | - |
| 1787963404 | 27.78° C | 36% | 1017.7 hPa | 0 mm | - | 36 W/m² | - |
| 1787962807 | 28.33° C | 40% | 1017.7 hPa | 0 mm | - | 63 W/m² | - |
* Rain latest hour (hover to see other rain measurements)
** Current wind speed in m/s (hover to see current wind gust speed)